createdAt,value
2018-01-26T00:00:46.113Z,16.80
2018-01-26T00:03:13.522Z,21.50
2018-01-26T00:05:40.957Z,18.30
2018-01-26T00:08:08.408Z,20.03
2018-01-26T00:10:35.829Z,14.20
2018-01-26T00:13:03.254Z,18.33
2018-01-26T00:15:31.449Z,16.13
2018-01-26T00:17:59.649Z,20.47
2018-01-26T00:20:27.173Z,22.70
2018-01-26T00:22:54.596Z,20.47
2018-01-26T00:25:22.047Z,17.27
2018-01-26T00:27:49.589Z,23.63
2018-01-26T00:30:17.092Z,23.53
2018-01-26T00:32:44.530Z,19.50
2018-01-26T00:35:12.188Z,24.97
2018-01-26T00:37:39.667Z,28.40
2018-01-26T00:40:07.130Z,18.37
2018-01-26T00:42:34.515Z,18.47
2018-01-26T00:45:02.348Z,18.87
2018-01-26T00:47:29.760Z,16.27
2018-01-26T00:49:57.184Z,19.87
2018-01-26T00:52:24.610Z,20.10
2018-01-26T00:54:52.037Z,18.03
2018-01-26T00:57:19.454Z,18.63
2018-01-26T00:59:46.892Z,15.40
2018-01-26T01:02:15.091Z,15.17
2018-01-26T01:04:42.514Z,14.80
2018-01-26T01:07:09.951Z,23.63
2018-01-26T01:09:37.383Z,31.00
2018-01-26T01:12:04.808Z,14.20
2018-01-26T01:14:33.012Z,15.67
2018-01-26T01:17:00.439Z,23.13
2018-01-26T01:19:27.879Z,23.50
2018-01-26T01:21:56.067Z,23.83
2018-01-26T01:24:24.277Z,19.47
2018-01-26T01:26:51.694Z,20.50
2018-01-26T01:29:19.898Z,19.23
2018-01-26T01:31:47.329Z,21.30
2018-01-26T01:34:15.535Z,19.67
2018-01-26T01:36:42.946Z,27.67
2018-01-26T01:39:11.135Z,20.73
2018-01-26T01:41:39.338Z,16.07
2018-01-26T01:44:06.759Z,17.53
2018-01-26T01:46:34.188Z,21.97
2018-01-26T01:49:13.544Z,16.70
2018-01-26T01:51:40.970Z,15.83
2018-01-26T01:54:08.398Z,18.23
2018-01-26T01:56:35.827Z,19.70
2018-01-26T01:59:04.038Z,16.40
2018-01-26T02:01:31.479Z,17.57
2018-01-26T02:03:58.894Z,16.27
2018-01-26T02:06:26.339Z,17.80
2018-01-26T02:08:53.769Z,15.60
2018-01-26T02:11:21.198Z,18.07
2018-01-26T02:13:48.618Z,21.40
2018-01-26T02:16:16.046Z,21.87
2018-01-26T02:18:43.486Z,17.50
2018-01-26T02:21:10.915Z,17.80
2018-01-26T02:23:56.688Z,15.93
2018-01-26T02:26:24.110Z,22.33
2018-01-26T02:28:51.561Z,18.50
2018-01-26T02:31:19.059Z,22.90
2018-01-26T02:33:47.264Z,17.60
2018-01-26T02:36:14.704Z,18.60
2018-01-26T02:38:42.902Z,20.90
2018-01-26T02:41:10.328Z,19.00
2018-01-26T02:43:38.525Z,16.90
2018-01-26T02:46:05.951Z,17.90
2018-01-26T02:48:33.385Z,18.30
2018-01-26T02:51:00.813Z,16.40
2018-01-26T02:53:28.249Z,16.07
2018-01-26T02:55:55.680Z,16.47
2018-01-26T02:58:23.120Z,16.90
2018-01-26T03:00:50.551Z,19.17
2018-01-26T03:03:17.998Z,14.77
2018-01-26T03:05:45.428Z,19.07
2018-01-26T03:08:13.628Z,17.00
2018-01-26T03:10:41.055Z,17.43
2018-01-26T03:13:09.259Z,19.10
2018-01-26T03:15:36.693Z,15.70
2018-01-26T03:18:04.894Z,17.90
2018-01-26T03:20:32.325Z,21.50
2018-01-26T03:22:59.760Z,20.13
2018-01-26T03:25:27.951Z,18.40
2018-01-26T03:27:56.155Z,13.37
2018-01-26T03:30:23.582Z,15.43
2018-01-26T03:32:51.775Z,11.70
2018-01-26T03:35:19.196Z,9.17
2018-01-26T03:37:46.636Z,8.80
2018-01-26T03:40:14.059Z,12.07
2018-01-26T03:42:41.483Z,10.47
2018-01-26T03:45:09.698Z,14.00
2018-01-26T03:47:37.116Z,10.37
2018-01-26T03:50:05.319Z,13.70
2018-01-26T03:52:38.339Z,7.10
2018-01-26T03:55:05.780Z,10.10
2018-01-26T03:57:33.197Z,10.90
2018-01-26T04:00:00.627Z,9.77
2018-01-26T04:02:28.057Z,10.90
2018-01-26T04:04:55.489Z,10.50
2018-01-26T04:07:22.916Z,9.73
2018-01-26T04:09:51.112Z,5.50
2018-01-26T04:12:18.545Z,6.10
2018-01-26T04:14:46.738Z,11.20
2018-01-26T04:17:14.184Z,8.73
2018-01-26T04:19:42.386Z,5.27
2018-01-26T04:22:09.816Z,7.00
2018-01-26T04:24:38.079Z,6.37
2018-01-26T04:27:06.276Z,4.37
2018-01-26T04:29:33.911Z,3.30
2018-01-26T04:32:02.109Z,3.63
2018-01-26T04:34:29.543Z,3.33
2018-01-26T04:36:57.743Z,3.30
2018-01-26T04:39:25.163Z,2.83
2018-01-26T04:41:52.624Z,2.60
2018-01-26T04:44:20.083Z,5.63
2018-01-26T04:46:48.276Z,3.20
2018-01-26T04:49:16.463Z,5.00
2018-01-26T04:51:43.896Z,3.83
2018-01-26T04:54:12.092Z,2.90
2018-01-26T04:56:39.514Z,1.43
2018-01-26T04:59:06.938Z,5.30
2018-01-26T05:01:34.381Z,3.63
2018-01-26T05:04:01.804Z,2.63
2018-01-26T05:06:30.012Z,3.43
2018-01-26T05:08:57.432Z,2.23
2018-01-26T05:11:25.659Z,2.47
2018-01-26T05:13:53.048Z,3.30
2018-01-26T05:16:20.476Z,4.60
2018-01-26T05:18:48.232Z,1.93
2018-01-26T05:21:15.650Z,1.93
2018-01-26T05:23:43.831Z,2.10
2018-01-26T05:26:11.264Z,2.20
2018-01-26T05:28:39.456Z,3.20
2018-01-26T05:31:20.902Z,3.47
2018-01-26T05:33:48.329Z,2.93
2018-01-26T05:36:15.747Z,3.20
2018-01-26T05:38:43.930Z,4.50
2018-01-26T05:41:11.366Z,5.60
2018-01-26T05:43:38.784Z,3.07
2018-01-26T05:46:06.227Z,3.17
2018-01-26T05:48:33.640Z,4.37
2018-01-26T05:51:01.840Z,6.50
2018-01-26T05:53:30.288Z,2.27
2018-01-26T05:55:57.973Z,5.00
2018-01-26T05:58:26.156Z,2.13
2018-01-26T06:00:53.579Z,7.10
2018-01-26T06:03:21.016Z,3.30
2018-01-26T06:05:48.430Z,3.80
2018-01-26T06:08:15.868Z,3.87
2018-01-26T06:10:44.056Z,2.97
2018-01-26T06:13:11.579Z,4.87
2018-01-26T06:15:39.000Z,4.57
2018-01-26T06:18:06.437Z,4.20
2018-01-26T06:20:33.859Z,8.13
2018-01-26T06:23:01.292Z,10.90
2018-01-26T06:25:28.733Z,3.30
2018-01-26T06:27:56.157Z,5.83
2018-01-26T06:30:23.588Z,4.30
2018-01-26T06:32:51.793Z,4.40
2018-01-26T06:35:19.215Z,5.83
2018-01-26T06:37:46.691Z,3.17
2018-01-26T06:40:14.883Z,3.57
2018-01-26T06:42:42.317Z,4.00
2018-01-26T06:45:10.508Z,3.80
2018-01-26T06:47:37.940Z,5.93
2018-01-26T06:50:06.129Z,5.67
2018-01-26T06:52:34.306Z,9.30
2018-01-26T06:55:01.748Z,4.63
2018-01-26T06:57:29.170Z,8.93
2018-01-26T06:59:56.728Z,4.70
2018-01-26T07:02:24.216Z,4.07
2018-01-26T07:04:51.701Z,8.67
2018-01-26T07:07:19.129Z,7.33
2018-01-26T07:09:46.594Z,7.83
2018-01-26T07:12:14.788Z,6.73
2018-01-26T07:14:42.229Z,10.13
2018-01-26T07:17:10.416Z,7.40
2018-01-26T07:19:37.906Z,8.43
2018-01-26T07:22:05.379Z,7.50
2018-01-26T07:24:32.780Z,5.83
2018-01-26T07:27:00.987Z,6.40
2018-01-26T07:29:28.515Z,7.70
2018-01-26T07:31:56.712Z,6.00
2018-01-26T07:34:24.140Z,9.60
2018-01-26T07:36:52.338Z,8.10
2018-01-26T07:39:19.750Z,5.20
2018-01-26T07:41:47.183Z,8.50
2018-01-26T07:44:14.603Z,5.47
2018-01-26T07:46:42.036Z,7.13
2018-01-26T07:49:10.236Z,6.60
2018-01-26T07:51:37.671Z,4.67
2018-01-26T07:54:05.869Z,7.60
2018-01-26T07:56:33.283Z,7.17
2018-01-26T07:59:00.716Z,6.40
2018-01-26T08:01:28.149Z,7.10
2018-01-26T08:03:55.583Z,8.00
2018-01-26T08:06:23.772Z,7.30
2018-01-26T08:08:51.199Z,7.87
2018-01-26T08:11:19.397Z,9.03
2018-01-26T08:13:46.818Z,7.50
2018-01-26T08:16:14.248Z,6.17
2018-01-26T08:18:41.671Z,9.50
2018-01-26T08:21:09.093Z,6.70
2018-01-26T08:23:36.524Z,5.00
2018-01-26T08:26:03.955Z,6.83
2018-01-26T08:28:31.385Z,7.73
2018-01-26T08:30:59.589Z,10.47
2018-01-26T08:33:27.015Z,6.50
2018-01-26T08:35:55.218Z,7.70
2018-01-26T08:38:22.648Z,7.90
2018-01-26T08:40:51.824Z,7.57
2018-01-26T08:43:19.255Z,13.53
2018-01-26T08:45:46.685Z,8.70
2018-01-26T08:48:14.128Z,6.73
2018-01-26T08:50:41.547Z,6.47
2018-01-26T08:53:08.972Z,8.53
2018-01-26T08:55:36.414Z,8.30
2018-01-26T08:58:03.834Z,7.73
2018-01-26T09:00:32.054Z,7.50
2018-01-26T09:02:59.464Z,9.20
2018-01-26T09:05:27.656Z,6.87
2018-01-26T09:07:55.079Z,5.60
2018-01-26T09:10:22.511Z,6.73
2018-01-26T09:12:49.930Z,6.67
2018-01-26T09:15:17.365Z,7.13
2018-01-26T09:17:45.562Z,10.10
2018-01-26T09:20:12.996Z,4.70
2018-01-26T09:22:41.202Z,5.80
2018-01-26T09:25:08.628Z,5.83
2018-01-26T09:27:36.863Z,9.60
2018-01-26T09:30:04.306Z,6.93
2018-01-26T09:32:31.743Z,7.07
2018-01-26T09:35:00.200Z,8.93
2018-01-26T09:37:28.411Z,6.83
2018-01-26T09:39:55.879Z,6.50
2018-01-26T09:42:23.320Z,6.80
2018-01-26T09:44:50.755Z,6.93
2018-01-26T09:47:18.964Z,14.17
2018-01-26T09:49:46.393Z,7.23
2018-01-26T09:52:13.832Z,14.20
2018-01-26T09:54:42.027Z,10.63
2018-01-26T09:57:09.472Z,8.33
2018-01-26T09:59:37.736Z,6.30
2018-01-26T10:02:05.927Z,7.70
2018-01-26T10:04:33.355Z,9.43
2018-01-26T10:07:00.820Z,7.60
2018-01-26T10:09:29.048Z,7.20
2018-01-26T10:11:56.488Z,5.93
2018-01-26T10:14:23.919Z,7.20
2018-01-26T10:16:52.119Z,12.03
2018-01-26T10:19:19.552Z,7.97
2018-01-26T10:21:47.745Z,6.70
2018-01-26T10:24:15.180Z,7.50
2018-01-26T10:26:43.443Z,9.10
2018-01-26T10:29:10.871Z,7.13
2018-01-26T10:31:38.308Z,6.53
2018-01-26T10:34:05.742Z,6.87
2018-01-26T10:36:33.253Z,10.90
2018-01-26T10:39:01.408Z,9.40
2018-01-26T10:41:28.824Z,7.83
2018-01-26T10:43:57.027Z,6.33
2018-01-26T10:46:24.447Z,8.57
2018-01-26T10:48:52.660Z,8.37
2018-01-26T10:51:20.096Z,10.43
2018-01-26T10:53:47.532Z,7.00
2018-01-26T10:56:15.729Z,8.40
2018-01-26T10:58:43.155Z,8.80
2018-01-26T11:01:10.596Z,9.00
2018-01-26T11:03:38.034Z,5.87
2018-01-26T11:06:05.481Z,7.03
2018-01-26T11:08:32.913Z,8.20
2018-01-26T11:11:00.356Z,7.37
2018-01-26T11:13:28.612Z,9.40
2018-01-26T11:15:56.047Z,8.10
2018-01-26T11:18:23.488Z,4.40
2018-01-26T11:20:50.924Z,5.17
2018-01-26T11:23:18.438Z,10.13
2018-01-26T11:25:45.983Z,7.90
2018-01-26T11:28:13.571Z,5.00
2018-01-26T11:30:41.007Z,5.33
2018-01-26T11:33:08.444Z,5.60
2018-01-26T11:35:35.891Z,12.20
2018-01-26T11:38:03.354Z,9.40
2018-01-26T11:40:30.776Z,4.90
2018-01-26T11:42:58.216Z,9.00
2018-01-26T11:45:26.417Z,5.10
2018-01-26T11:47:53.958Z,11.50
2018-01-26T11:50:22.130Z,4.03
2018-01-26T11:52:50.326Z,8.57
2018-01-26T11:55:17.768Z,7.60
2018-01-26T11:57:45.959Z,5.80
2018-01-26T12:00:14.395Z,4.67
2018-01-26T12:02:41.836Z,4.47
2018-01-26T12:05:09.273Z,5.87
2018-01-26T12:07:36.709Z,8.60
2018-01-26T12:10:04.139Z,8.63
2018-01-26T12:12:32.337Z,7.70
2018-01-26T12:14:59.872Z,5.03
2018-01-26T12:17:28.070Z,5.70
2018-01-26T12:19:55.516Z,9.70
2018-01-26T12:22:23.720Z,6.27
2018-01-26T12:24:51.156Z,5.90
2018-01-26T12:27:18.584Z,9.77
2018-01-26T12:29:46.792Z,6.13
2018-01-26T12:32:14.240Z,6.90
2018-01-26T12:34:42.437Z,7.93
2018-01-26T12:37:09.878Z,6.90
2018-01-26T12:39:38.068Z,5.17
2018-01-26T12:42:05.490Z,5.40
2018-01-26T12:44:33.701Z,7.27
2018-01-26T12:47:01.210Z,6.00
2018-01-26T12:49:28.645Z,6.80
2018-01-26T12:51:56.080Z,4.67
2018-01-26T12:54:23.588Z,6.77
2018-01-26T12:56:51.784Z,5.50
2018-01-26T12:59:19.322Z,4.80
2018-01-26T13:01:47.539Z,6.17
2018-01-26T13:04:15.032Z,5.60
2018-01-26T13:06:42.499Z,12.03
2018-01-26T13:09:09.911Z,5.27
2018-01-26T13:11:37.340Z,3.83
2018-01-26T13:14:05.553Z,5.30
2018-01-26T13:16:32.990Z,5.90
2018-01-26T13:19:00.417Z,6.50
2018-01-26T13:21:28.617Z,7.97
2018-01-26T13:23:56.057Z,7.30
2018-01-26T13:26:24.263Z,6.40
2018-01-26T13:28:51.784Z,7.90
2018-01-26T13:31:19.984Z,6.60
2018-01-26T13:33:49.606Z,5.93
2018-01-26T13:36:17.072Z,6.57
2018-01-26T13:38:44.576Z,7.23
2018-01-26T13:41:12.852Z,5.10
2018-01-26T13:43:41.789Z,7.10
2018-01-26T13:46:16.328Z,4.67
2018-01-26T13:48:43.758Z,5.17
2018-01-26T13:51:11.357Z,18.97
2018-01-26T13:53:45.355Z,4.17
2018-01-26T13:56:12.797Z,4.80
2018-01-26T13:58:40.233Z,5.90
2018-01-26T14:01:07.672Z,8.13
2018-01-26T14:04:01.256Z,6.83
2018-01-26T14:06:29.450Z,7.93
2018-01-26T14:08:56.880Z,6.67
2018-01-26T14:11:25.085Z,7.20
2018-01-26T14:13:52.516Z,11.63
2018-01-26T14:16:19.965Z,7.17
2018-01-26T14:18:48.168Z,3.77
2018-01-26T14:21:15.597Z,6.97
2018-01-26T14:23:43.819Z,8.00
2018-01-26T14:26:11.264Z,5.47
2018-01-26T14:28:38.823Z,9.10
2018-01-26T14:31:07.127Z,5.53
2018-01-26T14:33:34.647Z,8.87
2018-01-26T14:36:03.102Z,9.10
2018-01-26T14:38:31.345Z,7.60
2018-01-26T14:40:58.773Z,7.10
2018-01-26T14:43:26.296Z,10.53
2018-01-26T14:45:54.591Z,5.43
2018-01-26T14:48:22.850Z,8.03
2018-01-26T14:50:51.058Z,7.23
2018-01-26T14:53:19.308Z,11.97
2018-01-26T14:55:47.495Z,6.57
2018-01-26T14:58:16.010Z,5.33
2018-01-26T15:00:43.409Z,9.47
2018-01-26T15:03:11.693Z,10.93
2018-01-26T15:05:39.953Z,7.47
2018-01-26T15:08:07.481Z,7.53
2018-01-26T15:10:35.890Z,8.37
2018-01-26T15:13:03.569Z,14.03
2018-01-26T15:15:31.763Z,6.87
2018-01-26T15:17:59.355Z,9.90
2018-01-26T15:20:26.816Z,7.30
2018-01-26T15:22:54.249Z,7.07
2018-01-26T15:25:21.768Z,6.93
2018-01-26T15:27:50.014Z,10.27
2018-01-26T15:30:17.408Z,6.43
2018-01-26T15:32:45.615Z,4.50
2018-01-26T15:35:13.077Z,11.50
2018-01-26T15:37:40.476Z,5.50
2018-01-26T15:40:08.097Z,10.50
2018-01-26T15:42:35.521Z,8.30
2018-01-26T15:45:02.957Z,8.13
2018-01-26T15:47:30.413Z,8.07
2018-01-26T15:49:57.848Z,12.07
2018-01-26T15:52:25.293Z,10.70
2018-01-26T15:54:52.730Z,8.40
2018-01-26T15:57:20.166Z,11.37
2018-01-26T15:59:47.616Z,9.27
2018-01-26T16:02:15.803Z,5.80
2018-01-26T16:04:43.235Z,11.37
2018-01-26T16:07:11.441Z,10.93
2018-01-26T16:09:38.879Z,12.73
2018-01-26T16:12:07.095Z,11.30
2018-01-26T16:14:34.524Z,10.33
2018-01-26T16:17:01.955Z,8.80
2018-01-26T16:19:30.161Z,7.50
2018-01-26T16:21:57.591Z,11.43
2018-01-26T16:24:25.799Z,13.17
2018-01-26T16:26:53.226Z,11.87
2018-01-26T16:29:21.436Z,10.67
2018-01-26T16:31:48.868Z,9.73
2018-01-26T16:34:17.071Z,6.57
2018-01-26T16:36:44.488Z,8.10
2018-01-26T16:39:12.697Z,10.80
2018-01-26T16:41:40.142Z,11.30
2018-01-26T16:44:07.560Z,16.00
2018-01-26T16:46:34.998Z,13.83
2018-01-26T16:49:02.427Z,15.83
2018-01-26T16:51:29.846Z,13.57
2018-01-26T16:53:58.041Z,10.90
2018-01-26T16:56:25.477Z,11.23
2018-01-26T16:58:53.674Z,10.40
2018-01-26T17:01:21.103Z,10.40
2018-01-26T17:03:49.304Z,13.40
2018-01-26T17:06:16.727Z,13.57
2018-01-26T17:08:44.919Z,16.13
2018-01-26T17:11:13.132Z,10.17
2018-01-26T17:13:40.560Z,12.87
2018-01-26T17:16:07.998Z,13.33
2018-01-26T17:18:36.221Z,12.97
2018-01-26T17:21:03.654Z,13.33
2018-01-26T17:23:31.080Z,11.50
2018-01-26T17:25:58.532Z,13.60
2018-01-26T17:28:25.974Z,14.87
2018-01-26T17:30:53.399Z,12.03
2018-01-26T17:33:20.843Z,14.50
2018-01-26T17:35:48.265Z,8.80
2018-01-26T17:38:16.471Z,11.43
2018-01-26T17:40:43.903Z,14.93
2018-01-26T17:43:12.098Z,10.83
2018-01-26T17:45:39.540Z,10.40
2018-01-26T17:48:07.800Z,12.73
2018-01-26T17:50:35.240Z,14.27
2018-01-26T17:53:02.673Z,18.20
2018-01-26T17:55:30.108Z,18.40
2018-01-26T17:57:57.553Z,16.50
2018-01-26T18:00:24.989Z,18.93
2018-01-26T18:02:53.191Z,21.03
2018-01-26T18:05:20.611Z,15.13
2018-01-26T18:07:48.047Z,14.83
2018-01-26T18:10:15.466Z,13.10
2018-01-26T18:12:42.908Z,17.10
2018-01-26T18:15:10.354Z,13.70
2018-01-26T18:17:38.552Z,21.07
2018-01-26T18:20:05.996Z,21.23
2018-01-26T18:22:34.198Z,17.70
2018-01-26T18:25:01.656Z,20.73
2018-01-26T18:27:29.176Z,22.43
2018-01-26T18:29:57.383Z,22.80
2018-01-26T18:32:24.833Z,20.57
2018-01-26T18:34:52.271Z,22.13
2018-01-26T18:37:20.467Z,19.33
2018-01-26T18:39:47.908Z,25.40
2018-01-26T18:42:16.099Z,28.37
2018-01-26T18:44:43.545Z,20.87
2018-01-26T18:47:10.976Z,21.40
2018-01-26T18:49:38.427Z,20.50
2018-01-26T18:52:05.897Z,26.10
2018-01-26T18:54:34.110Z,25.10
2018-01-26T18:57:01.531Z,26.33
2018-01-26T18:59:29.739Z,25.07
2018-01-26T19:01:57.172Z,25.33
2018-01-26T19:04:25.376Z,21.77
2018-01-26T19:06:52.820Z,22.93
2018-01-26T19:09:20.253Z,19.80
2018-01-26T19:11:48.464Z,20.10
2018-01-26T19:14:15.897Z,20.23
2018-01-26T19:16:43.336Z,19.93
2018-01-26T19:19:11.537Z,22.83
2018-01-26T19:21:38.963Z,23.03
2018-01-26T19:24:07.159Z,19.63
2018-01-26T19:26:35.420Z,21.63
2018-01-26T19:29:03.660Z,23.70
2018-01-26T19:31:31.100Z,25.97
2018-01-26T19:33:58.536Z,27.33
2018-01-26T19:36:25.970Z,28.30
2018-01-26T19:38:54.180Z,28.10
2018-01-26T19:41:21.613Z,29.80
2018-01-26T19:43:49.829Z,27.20
2018-01-26T19:46:17.270Z,23.47
2018-01-26T19:48:44.697Z,29.03
2018-01-26T19:51:12.902Z,26.60
2018-01-26T19:53:40.358Z,25.63
2018-01-26T19:56:07.777Z,30.73
2018-01-26T19:58:36.040Z,25.70
2018-01-26T20:01:03.480Z,28.93
2018-01-26T20:03:31.698Z,28.60
2018-01-26T20:06:04.832Z,27.27
2018-01-26T20:08:38.044Z,28.07
2018-01-26T20:11:05.491Z,31.97
2018-01-26T20:13:32.927Z,27.77
2018-01-26T20:16:00.355Z,32.90
2018-01-26T20:18:27.822Z,29.67
2018-01-26T20:20:55.769Z,30.53
2018-01-26T20:23:24.040Z,36.13
2018-01-26T20:25:52.243Z,53.60
2018-01-26T20:28:19.681Z,62.97
2018-01-26T20:30:47.887Z,45.10
2018-01-26T20:33:15.324Z,46.27
2018-01-26T20:35:42.775Z,45.30
2018-01-26T20:38:10.215Z,32.23
2018-01-26T20:40:38.424Z,30.67
2018-01-26T20:43:05.852Z,27.07
2018-01-26T20:45:35.058Z,31.07
2018-01-26T20:48:03.261Z,29.10
2018-01-26T20:50:30.707Z,23.97
2018-01-26T20:52:58.136Z,27.73
2018-01-26T20:55:26.336Z,24.90
2018-01-26T20:57:54.788Z,29.23
2018-01-26T21:00:22.992Z,30.47
2018-01-26T21:02:50.472Z,26.07
2018-01-26T21:05:17.960Z,26.17
2018-01-26T21:07:45.400Z,22.67
2018-01-26T21:10:12.857Z,29.73
2018-01-26T21:12:40.354Z,24.80
2018-01-26T21:15:08.574Z,26.37
2018-01-26T21:17:36.026Z,32.00
2018-01-26T21:20:03.460Z,28.57
2018-01-26T21:22:30.894Z,28.67
2018-01-26T21:24:59.123Z,24.87
2018-01-26T21:27:26.560Z,26.90
2018-01-26T21:29:54.207Z,27.33
2018-01-26T21:32:22.412Z,27.10
2018-01-26T21:34:49.848Z,22.63
2018-01-26T21:37:17.289Z,25.80
2018-01-26T21:39:45.499Z,26.73
2018-01-26T21:42:12.940Z,23.87
2018-01-26T21:44:40.395Z,27.80
2018-01-26T21:47:08.606Z,29.20
2018-01-26T21:49:36.027Z,20.57
2018-01-26T21:52:03.469Z,25.80
2018-01-26T21:54:31.673Z,18.77
2018-01-26T21:56:59.110Z,20.47
2018-01-26T21:59:26.708Z,23.00
2018-01-26T22:01:55.929Z,23.40
2018-01-26T22:07:28.927Z,34.27
2018-01-26T22:09:56.423Z,25.70
2018-01-26T22:12:24.629Z,29.27
2018-01-26T22:14:52.186Z,30.60
2018-01-26T22:17:19.591Z,36.93
2018-01-26T22:19:47.060Z,32.57
2018-01-26T22:22:14.515Z,33.63
2018-01-26T22:24:42.716Z,31.90
2018-01-26T22:27:10.151Z,27.67
2018-01-26T22:29:38.352Z,29.60
2018-01-26T22:32:05.880Z,30.40
2018-01-26T22:34:33.303Z,30.50
2018-01-26T22:37:00.746Z,30.10
2018-01-26T22:39:28.167Z,26.13
2018-01-26T22:41:55.607Z,25.67
2018-01-26T22:44:23.815Z,22.43
2018-01-26T22:46:51.252Z,35.10
2018-01-26T22:49:19.469Z,27.33
2018-01-26T22:51:46.916Z,31.77
2018-01-26T22:54:14.342Z,27.20
2018-01-26T22:56:42.553Z,25.23
2018-01-26T22:59:10.129Z,34.73
2018-01-26T23:01:37.550Z,23.73
2018-01-26T23:04:04.987Z,23.53
2018-01-26T23:06:33.195Z,25.17
2018-01-26T23:09:00.640Z,25.80
2018-01-26T23:11:28.844Z,24.03
2018-01-26T23:13:56.283Z,26.83
2018-01-26T23:16:23.725Z,28.80
2018-01-26T23:18:51.159Z,29.47
2018-01-26T23:21:19.362Z,27.10
2018-01-26T23:23:46.804Z,23.90
2018-01-26T23:26:14.236Z,22.17
2018-01-26T23:28:41.679Z,26.40
2018-01-26T23:31:09.158Z,22.00
2018-01-26T23:33:36.557Z,25.67
2018-01-26T23:36:04.004Z,22.87
2018-01-26T23:38:31.457Z,21.77
2018-01-26T23:40:58.888Z,28.40
2018-01-26T23:43:27.088Z,19.03
2018-01-26T23:45:54.512Z,21.80
2018-01-26T23:48:21.948Z,20.67
2018-01-26T23:50:49.383Z,23.87
2018-01-26T23:53:16.828Z,20.50
2018-01-26T23:55:44.254Z,31.43
2018-01-26T23:58:12.465Z,18.17
